Time;durP1;ratioP1;P1;durP2;ratioP2;P2;SDS_P1;SDS_P2;PMS_P1;PMS_P2;Temp;Humidity;BMP_temperature;BMP_pressure;BME280_temperature;BME280_humidity;BME280_pressure;Samples;Min_cycle;Max_cycle;Signal;HPM_P1;HPM_P2
2023/08/05 00:01:02;;;;;;;;;6.60;5.60;;;;;15.80;79.34;99905.44;4977438;28;8847;-61
2023/08/05 00:03:30;;;;;;;;;9.00;6.20;;;;;15.74;79.75;99906.91;4976324;28;8837;-61
2023/08/05 00:05:57;;;;;;;;;8.60;7.00;;;;;15.70;79.82;99902.81;4977418;28;8975;-59
2023/08/05 00:08:25;;;;;;;;;4.00;4.00;;;;;15.67;79.60;99903.16;4977193;28;8828;-61
2023/08/05 00:10:54;;;;;;;;;6.80;6.60;;;;;15.64;79.71;99895.38;4977003;28;9634;-59
2023/08/05 00:13:22;;;;;;;;;5.20;4.40;;;;;15.63;79.77;99906.31;4977732;28;9507;-61
2023/08/05 00:15:51;;;;;;;;;6.00;6.00;;;;;15.59;80.03;99897.72;4977078;28;8844;-59
2023/08/05 00:18:18;;;;;;;;;3.80;1.40;;;;;15.56;79.95;99895.31;4976724;28;8859;-59
2023/08/05 00:20:46;;;;;;;;;6.00;6.00;;;;;15.56;80.01;99897.19;4975488;28;8812;-58
2023/08/05 00:23:14;;;;;;;;;6.80;6.80;;;;;15.54;80.35;99894.63;4976454;28;8840;-59
2023/08/05 00:25:41;;;;;;;;;6.00;4.80;;;;;15.53;80.09;99892.09;4977094;28;8990;-61
2023/08/05 00:28:09;;;;;;;;;6.60;6.00;;;;;15.52;80.13;99895.78;4976275;28;8859;-58
2023/08/05 00:30:37;;;;;;;;;6.40;6.00;;;;;15.52;80.12;99901.16;4976419;28;8837;-60
2023/08/05 00:33:04;;;;;;;;;7.00;6.60;;;;;15.53;79.91;99889.41;4976460;28;8833;-60
2023/08/05 00:35:32;;;;;;;;;6.80;6.00;;;;;15.48;79.99;99900.63;4976366;28;8836;-59
2023/08/05 00:38:00;;;;;;;;;4.40;4.40;;;;;15.42;80.28;99901.25;4976690;28;8829;-60
2023/08/05 00:40:28;;;;;;;;;5.80;4.40;;;;;15.38;80.23;99901.69;4976441;28;8812;-60
2023/08/05 00:42:55;;;;;;;;;6.60;6.20;;;;;15.36;80.57;99896.50;4976592;28;8820;-60
2023/08/05 00:45:23;;;;;;;;;7.80;6.40;;;;;15.37;79.99;99897.31;4976701;28;8828;-61
2023/08/05 00:47:52;;;;;;;;;6.80;6.00;;;;;15.36;79.99;99893.81;4976934;28;8821;-61
2023/08/05 00:50:20;;;;;;;;;7.80;7.80;;;;;15.35;80.39;99899.31;4976850;28;8851;-61
2023/08/05 00:52:47;;;;;;;;;9.40;6.60;;;;;15.32;80.35;99911.19;4977084;28;8840;-61
2023/08/05 00:55:15;;;;;;;;;4.00;3.40;;;;;15.29;80.09;99899.91;4976927;28;8837;-61
2023/08/05 00:57:43;;;;;;;;;4.00;3.20;;;;;15.26;80.09;99901.03;4977073;28;8840;-61
2023/08/05 01:00:11;;;;;;;;;6.40;6.00;;;;;15.24;80.31;99888.78;4976288;28;8880;-61
2023/08/05 01:02:38;;;;;;;;;7.40;6.60;;;;;15.24;80.17;99892.31;4976808;28;8836;-61
2023/08/05 01:05:06;;;;;;;;;6.00;6.00;;;;;15.26;80.01;99895.66;4976623;28;8836;-61
2023/08/05 01:07:34;;;;;;;;;6.20;6.00;;;;;15.28;80.44;99899.06;4976424;28;8841;-59
2023/08/05 01:10:01;;;;;;;;;7.50;7.00;;;;;15.31;80.20;99895.25;4975401;28;8914;-59
2023/08/05 01:12:29;;;;;;;;;7.00;6.00;;;;;15.32;79.90;99894.28;4976324;28;8812;-60
2023/08/05 01:14:57;;;;;;;;;6.00;6.00;;;;;15.35;80.05;99900.19;4979384;28;8824;-59
2023/08/05 01:17:24;;;;;;;;;3.20;3.00;;;;;15.38;79.67;99897.19;4980410;28;9525;-59
2023/08/05 01:19:52;;;;;;;;;6.00;5.20;;;;;15.41;79.93;99898.72;4979539;28;8899;-61
2023/08/05 01:22:20;;;;;;;;;11.20;9.80;;;;;15.43;79.64;99891.34;4980625;28;8825;-59
2023/08/05 01:24:48;;;;;;;;;5.60;4.40;;;;;15.42;80.01;99890.53;4980571;28;8839;-60
2023/08/05 01:27:15;;;;;;;;;8.40;7.00;;;;;15.45;79.79;99881.28;4980284;28;8817;-60
2023/08/05 01:29:43;;;;;;;;;6.80;6.20;;;;;15.44;79.23;99883.16;4979781;28;8847;-59
2023/08/05 01:32:10;;;;;;;;;5.20;5.20;;;;;15.43;79.61;99881.47;4980012;28;8820;-60
2023/08/05 01:34:38;;;;;;;;;7.40;7.40;;;;;15.42;79.90;99884.28;4980394;28;8832;-59
2023/08/05 01:37:06;;;;;;;;;5.60;4.40;;;;;15.39;79.97;99879.25;4980445;28;8847;-59
2023/08/05 01:39:33;;;;;;;;;6.00;6.00;;;;;15.37;79.65;99881.22;4979508;28;8820;-62
2023/08/05 01:42:01;;;;;;;;;3.60;3.60;;;;;15.31;79.84;99882.69;4979681;28;8835;-59
2023/08/05 01:44:29;;;;;;;;;3.00;1.00;;;;;15.25;80.32;99879.75;4980103;28;8831;-59
2023/08/05 01:46:56;;;;;;;;;6.60;6.00;;;;;15.16;80.51;99873.44;4979990;28;8867;-61
2023/08/05 01:49:24;;;;;;;;;6.00;4.00;;;;;15.11;80.23;99882.97;4979642;28;8844;-58
2023/08/05 01:51:52;;;;;;;;;5.00;4.50;;;;;15.06;80.45;99879.88;4979765;28;8839;-59
2023/08/05 01:54:19;;;;;;;;;2.20;2.20;;;;;15.00;80.44;99891.19;4979601;28;8825;-59
2023/08/05 01:56:47;;;;;;;;;6.00;6.00;;;;;14.94;81.15;99894.50;4979757;28;8858;-59
2023/08/05 01:59:15;;;;;;;;;6.50;6.00;;;;;14.89;80.85;99891.44;4978992;28;8825;-60
2023/08/05 02:01:43;;;;;;;;;6.00;4.00;;;;;14.84;81.58;99881.16;4978869;28;8923;-60
2023/08/05 02:04:11;;;;;;;;;4.40;4.00;;;;;14.80;81.34;99878.94;4979194;28;8935;-59
2023/08/05 02:06:39;;;;;;;;;6.75;6.50;;;;;14.77;81.73;99876.53;4979623;28;8943;-59
2023/08/05 02:09:06;;;;;;;;;7.50;6.50;;;;;14.74;80.93;99883.06;4979195;28;8829;-61
2023/08/05 02:11:34;;;;;;;;;7.00;7.00;;;;;14.70;81.50;99884.34;4979691;28;8840;-59
2023/08/05 02:14:02;;;;;;;;;7.00;5.25;;;;;14.69;81.44;99889.84;4979682;28;8863;-59
2023/08/05 02:16:30;;;;;;;;;6.00;6.00;;;;;14.66;81.57;99890.16;4979608;28;8828;-60
2023/08/05 02:18:57;;;;;;;;;7.25;7.25;;;;;14.67;81.30;99890.00;4979259;28;8825;-58
2023/08/05 02:21:25;;;;;;;;;9.00;9.00;;;;;14.68;81.63;99890.84;4979073;28;8848;-59
2023/08/05 02:23:53;;;;;;;;;8.00;7.50;;;;;14.68;81.66;99898.88;4979274;28;8820;-61
2023/08/05 02:26:22;;;;;;;;;8.00;6.50;;;;;14.67;81.65;99892.69;4978729;28;8821;-59
2023/08/05 02:28:49;;;;;;;;;7.00;6.00;;;;;14.65;81.06;99885.78;4978916;28;8828;-61
2023/08/05 02:31:17;;;;;;;;;6.00;6.00;;;;;14.64;81.47;99887.59;4979230;28;8856;-59
2023/08/05 02:33:45;;;;;;;;;6.25;4.50;;;;;14.63;81.01;99882.41;4979155;28;8840;-60
2023/08/05 02:36:13;;;;;;;;;4.00;4.00;;;;;14.61;81.09;99877.19;4979113;28;8828;-59
2023/08/05 02:38:41;;;;;;;;;6.00;6.00;;;;;14.62;81.36;99870.84;4978626;28;8841;-60
2023/08/05 02:41:08;;;;;;;;;7.00;6.25;;;;;14.61;81.34;99866.47;4978582;28;8825;-60
2023/08/05 02:43:36;;;;;;;;;8.00;6.50;;;;;14.59;81.39;99862.25;4978923;28;8841;-58
2023/08/05 02:46:04;;;;;;;;;6.50;5.00;;;;;14.57;80.82;99862.41;4979016;28;8813;-61
2023/08/05 02:48:31;;;;;;;;;7.00;7.00;;;;;14.56;81.57;99857.22;4979010;28;8839;-59
2023/08/05 02:51:00;;;;;;;;;9.25;7.00;;;;;14.56;81.63;99859.88;4978292;28;8823;-59
2023/08/05 02:53:28;;;;;;;;;9.75;9.00;;;;;14.51;82.09;99859.47;4978813;28;8832;-59
2023/08/05 02:55:55;;;;;;;;;8.00;7.00;;;;;14.48;81.31;99859.78;4978776;28;8848;-59
2023/08/05 02:58:23;;;;;;;;;9.25;7.00;;;;;14.44;81.55;99851.19;4978544;28;8817;-59
2023/08/05 03:00:51;;;;;;;;;6.50;6.50;;;;;14.42;81.56;99857.69;4978259;28;8829;-61
2023/08/05 03:03:18;;;;;;;;;9.25;9.25;;;;;14.36;81.60;99851.06;4978379;28;8879;-59
2023/08/05 03:05:46;;;;;;;;;7.50;6.25;;;;;14.32;81.45;99848.84;4978773;28;8817;-58
2023/08/05 03:08:13;;;;;;;;;9.00;9.00;;;;;14.28;81.99;99853.63;4978915;28;8915;-59
2023/08/05 03:10:42;;;;;;;;;6.25;4.50;;;;;14.25;81.64;99859.31;4977921;28;8839;-61
2023/08/05 03:13:10;;;;;;;;;1.50;1.00;;;;;14.22;81.52;99853.41;4978636;28;8833;-59
2023/08/05 03:15:37;;;;;;;;;6.00;6.00;;;;;14.20;81.99;99861.56;4978175;28;8845;-60
2023/08/05 03:18:05;;;;;;;;;6.00;4.00;;;;;14.19;81.81;99861.75;4977911;28;8821;-59
2023/08/05 03:20:34;;;;;;;;;8.00;6.50;;;;;14.18;81.87;99854.69;4978258;28;8829;-61
2023/08/05 03:23:02;;;;;;;;;7.75;6.25;;;;;14.19;81.96;99848.34;4978409;28;9486;-59
2023/08/05 03:25:30;;;;;;;;;6.00;3.00;;;;;14.20;81.81;99850.84;4978437;28;8843;-61
2023/08/05 03:27:57;;;;;;;;;6.75;6.00;;;;;14.18;81.79;99849.34;4977762;28;8848;-61
2023/08/05 03:30:25;;;;;;;;;6.25;6.00;;;;;14.13;81.94;99849.72;4978229;28;8848;-58
2023/08/05 03:32:53;;;;;;;;;6.25;6.25;;;;;14.10;82.00;99849.16;4977746;28;8839;-59
2023/08/05 03:35:20;;;;;;;;;7.00;7.00;;;;;14.07;82.01;99844.13;4977650;28;8829;-61
2023/08/05 03:37:48;;;;;;;;;5.50;5.50;;;;;14.04;81.68;99841.75;4976735;28;9732;-61
2023/08/05 03:40:16;;;;;;;;;8.00;8.00;;;;;14.03;81.93;99848.09;4978194;28;9511;-59
2023/08/05 03:42:44;;;;;;;;;7.00;7.00;;;;;14.03;81.99;99838.22;4977760;28;8836;-61
2023/08/05 03:45:12;;;;;;;;;6.00;6.00;;;;;14.03;81.85;99837.38;4977697;28;8832;-61
2023/08/05 03:47:39;;;;;;;;;6.50;6.00;;;;;14.06;82.29;99837.09;4976917;28;8817;-59
2023/08/05 03:50:08;;;;;;;;;6.50;5.00;;;;;14.09;81.70;99836.78;4977555;28;8816;-61
2023/08/05 03:52:36;;;;;;;;;6.00;6.00;;;;;14.12;81.99;99842.69;4977575;28;8833;-60
2023/08/05 03:55:07;;;;;;;;;9.50;7.25;;;;;14.17;81.95;99844.91;4977371;28;8836;-59
2023/08/05 03:57:34;;;;;;;;;5.50;5.50;;;;;14.17;81.70;99848.44;4977267;28;8825;-61
2023/08/05 04:00:02;;;;;;;;;7.00;6.75;;;;;14.17;81.97;99843.09;4977149;28;8852;-60
2023/08/05 04:02:31;;;;;;;;;9.75;9.00;;;;;14.19;81.91;99837.63;4976705;28;8851;-58
2023/08/05 04:04:59;;;;;;;;;9.75;9.75;;;;;14.21;81.73;99830.28;4977458;28;8824;-61
2023/08/05 04:07:26;;;;;;;;;7.25;5.50;;;;;14.20;81.28;99820.56;4977238;28;8829;-60
2023/08/05 04:09:54;;;;;;;;;7.50;6.50;;;;;14.20;81.33;99821.41;4977075;28;8840;-61
2023/08/05 04:12:22;;;;;;;;;8.00;7.00;;;;;14.22;82.04;99821.25;4976720;28;8837;-60
2023/08/05 04:14:50;;;;;;;;;6.75;6.75;;;;;14.22;81.16;99823.94;4976627;28;8843;-60
2023/08/05 04:17:19;;;;;;;;;9.50;7.50;;;;;14.22;81.27;99822.13;4976408;28;8813;-61
2023/08/05 04:19:47;;;;;;;;;11.50;9.00;;;;;14.23;81.71;99821.13;4976278;28;8947;-61
2023/08/05 04:22:19;;;;;;;;;10.00;9.00;;;;;14.25;81.33;99810.22;4976921;28;8829;-59
2023/08/05 04:24:46;;;;;;;;;6.50;6.00;;;;;14.26;81.53;99812.78;4976680;28;8841;-60
2023/08/05 04:27:14;;;;;;;;;6.00;4.50;;;;;14.28;81.03;99812.63;4976634;28;8801;-59
2023/08/05 04:29:42;;;;;;;;;9.00;7.00;;;;;14.29;81.45;99796.44;4976854;28;8852;-61
2023/08/05 04:32:10;;;;;;;;;9.00;8.50;;;;;14.30;81.35;99789.22;4976468;28;8839;-60
2023/08/05 04:34:38;;;;;;;;;6.75;6.50;;;;;14.26;81.13;99806.59;4976331;28;8833;-59
2023/08/05 04:37:05;;;;;;;;;3.75;3.25;;;;;14.23;81.63;99806.88;4976436;28;8820;-60
2023/08/05 04:39:33;;;;;;;;;7.00;6.25;;;;;14.19;81.02;99814.34;4976575;28;9508;-59
2023/08/05 04:42:01;;;;;;;;;8.00;6.50;;;;;14.20;81.29;99824.06;4976698;28;8844;-59
2023/08/05 04:44:29;;;;;;;;;7.25;7.25;;;;;14.23;81.90;99817.59;4976409;28;8817;-60
2023/08/05 04:46:57;;;;;;;;;7.50;6.50;;;;;14.23;81.69;99817.59;4976453;28;8805;-61
2023/08/05 04:49:24;;;;;;;;;4.00;4.00;;;;;14.24;80.81;99821.94;4978816;28;8859;-58
2023/08/05 04:51:52;;;;;;;;;4.50;4.50;;;;;14.25;81.56;99812.91;4980803;28;8859;-61
2023/08/05 04:54:20;;;;;;;;;7.50;4.50;;;;;14.24;81.14;99812.09;4980623;28;8833;-59
2023/08/05 04:56:47;;;;;;;;;7.00;6.50;;;;;14.23;81.75;99815.75;4980264;28;8828;-59
2023/08/05 04:59:15;;;;;;;;;6.25;5.25;;;;;14.20;81.02;99817.91;4980279;28;8860;-59
2023/08/05 05:01:43;;;;;;;;;6.00;6.00;;;;;14.20;81.75;99817.91;4980307;28;8828;-59
2023/08/05 05:04:11;;;;;;;;;6.00;6.00;;;;;14.24;81.13;99813.91;4980302;28;8848;-59
2023/08/05 05:06:38;;;;;;;;;6.50;6.25;;;;;14.24;81.16;99804.06;4979897;28;8836;-59
2023/08/05 05:09:06;;;;;;;;;7.50;7.00;;;;;14.28;81.63;99804.59;4980155;28;8833;-60
2023/08/05 05:11:33;;;;;;;;;8.25;6.50;;;;;14.30;81.17;99791.91;4980377;28;8844;-61
2023/08/05 05:14:01;;;;;;;;;6.00;5.00;;;;;14.36;80.60;99791.31;4980525;28;8828;-61
2023/08/05 05:16:29;;;;;;;;;6.00;6.00;;;;;14.39;80.73;99796.34;4979990;28;8852;-59
2023/08/05 05:18:56;;;;;;;;;6.00;6.00;;;;;14.45;81.38;99795.75;4980103;28;8851;-59
2023/08/05 05:21:24;;;;;;;;;6.75;6.00;;;;;14.52;81.18;99796.84;4980459;28;9597;-59
2023/08/05 05:23:52;;;;;;;;;4.00;4.00;;;;;14.61;80.81;99793.25;4980729;28;8817;-59
2023/08/05 05:26:19;;;;;;;;;6.25;6.00;;;;;14.70;80.37;99795.88;4979810;28;8837;-59
2023/08/05 05:28:47;;;;;;;;;6.00;5.00;;;;;14.77;80.04;99793.41;4979600;28;8991;-59
2023/08/05 05:31:15;;;;;;;;;8.50;8.00;;;;;14.80;80.25;99795.81;4979867;28;8863;-59
2023/08/05 05:33:47;;;;;;;;;7.00;7.00;;;;;14.83;80.05;99790.13;4979562;28;8832;-59
2023/08/05 05:36:14;;;;;;;;;7.40;6.80;;;;;14.87;80.01;99781.63;4980014;28;8836;-59
2023/08/05 05:38:42;;;;;;;;;4.40;3.80;;;;;14.99;79.95;99785.78;4979764;28;8862;-61
2023/08/05 05:41:10;;;;;;;;;8.00;7.00;;;;;15.11;80.19;99783.72;4980095;28;9565;-61
2023/08/05 05:43:39;;;;;;;;;8.00;6.75;;;;;15.23;79.09;99782.44;4980255;28;9506;-60
2023/08/05 05:46:07;;;;;;;;;7.50;6.75;;;;;15.37;79.17;99771.19;4979606;28;8801;-59
2023/08/05 05:48:34;;;;;;;;;9.25;7.50;;;;;15.49;78.78;99769.97;4979714;28;8840;-59
2023/08/05 05:51:02;;;;;;;;;8.75;8.50;;;;;15.60;78.60;99780.41;4979121;28;8816;-59
2023/08/05 05:53:30;;;;;;;;;9.50;7.00;;;;;15.71;78.25;99790.91;4979294;28;8871;-61
2023/08/05 05:55:57;;;;;;;;;9.00;8.20;;;;;15.81;77.96;99788.94;4978560;28;8846;-59
2023/08/05 05:58:25;;;;;;;;;9.60;9.60;;;;;15.91;78.26;99778.97;4978871;28;8836;-60
2023/08/05 06:00:52;;;;;;;;;6.20;4.00;;;;;16.02;77.85;99778.66;4977759;28;8939;-58
2023/08/05 06:03:20;;;;;;;;;7.00;6.80;;;;;16.14;77.87;99775.53;4978969;28;8839;-59
2023/08/05 06:05:50;;;;;;;;;8.60;8.20;;;;;16.25;77.24;99778.78;4977446;28;8903;-59
2023/08/05 06:08:18;;;;;;;;;1.00;1.00;;;;;16.39;77.26;99786.25;4977851;28;8840;-61
2023/08/05 06:10:45;;;;;;;;;9.00;7.80;;;;;16.51;77.34;99787.66;4978086;28;8836;-61
2023/08/05 06:13:13;;;;;;;;;7.00;6.40;;;;;16.61;76.93;99791.03;4978085;28;8848;-61
2023/08/05 06:15:41;;;;;;;;;5.20;4.00;;;;;16.71;76.74;99782.84;4977793;28;8831;-59
2023/08/05 06:18:09;;;;;;;;;11.20;10.00;;;;;16.80;76.28;99781.84;4978310;28;8951;-59
2023/08/05 06:20:36;;;;;;;;;13.00;12.40;;;;;16.91;76.70;99781.50;4978101;28;8840;-59
2023/08/05 06:23:06;;;;;;;;;8.80;8.60;;;;;17.02;75.91;99778.50;4978507;28;8887;-60
2023/08/05 06:25:34;;;;;;;;;9.40;8.60;;;;;17.14;76.21;99778.00;4977728;28;8794;-59
2023/08/05 06:28:01;;;;;;;;;14.60;13.40;;;;;17.25;75.82;99780.34;4977625;28;8828;-60
2023/08/05 06:30:29;;;;;;;;;9.40;8.20;;;;;17.24;75.73;99780.53;4977504;28;8833;-60
2023/08/05 06:32:57;;;;;;;;;9.00;7.00;;;;;17.23;76.04;99770.78;4978016;28;8914;-60
2023/08/05 06:35:24;;;;;;;;;12.00;11.20;;;;;17.24;75.61;99764.38;4977461;28;9506;-60
2023/08/05 06:37:52;;;;;;;;;10.00;9.40;;;;;17.28;76.00;99768.41;4977969;28;8833;-59
2023/08/05 06:40:20;;;;;;;;;7.80;6.60;;;;;17.29;76.17;99764.72;4978320;28;8832;-60
2023/08/05 06:42:49;;;;;;;;;12.60;9.80;;;;;17.28;75.79;99763.88;4978372;28;8821;-60
2023/08/05 06:45:17;;;;;;;;;9.80;9.20;;;;;17.36;76.46;99765.72;4977946;28;8855;-59
2023/08/05 06:47:44;;;;;;;;;10.40;8.20;;;;;17.54;75.87;99766.41;4978310;28;8840;-60
2023/08/05 06:50:13;;;;;;;;;8.40;8.20;;;;;17.76;75.18;99774.63;4977904;28;8836;-59
2023/08/05 06:52:40;;;;;;;;;10.00;9.00;;;;;17.89;74.66;99772.25;4977953;28;9525;-59
2023/08/05 06:55:08;;;;;;;;;8.20;7.00;;;;;18.03;75.00;99766.13;4977349;28;8943;-59
2023/08/05 06:57:36;;;;;;;;;7.00;7.00;;;;;18.13;74.72;99760.56;4978221;28;8825;-60
2023/08/05 07:00:05;;;;;;;;;8.40;7.80;;;;;18.13;74.33;99757.84;4977768;28;8829;-59
2023/08/05 07:02:32;;;;;;;;;8.00;8.00;;;;;18.07;74.70;99767.47;4977614;28;8860;-60
2023/08/05 07:05:00;;;;;;;;;10.00;6.00;;;;;17.99;74.81;99770.19;4977577;28;8820;-60
2023/08/05 07:07:28;;;;;;;;;10.40;9.00;;;;;17.96;75.12;99762.44;4977420;28;8840;-60
2023/08/05 07:10:01;;;;;;;;;6.20;4.80;;;;;17.97;75.51;99764.13;4977839;28;8844;-59
2023/08/05 07:12:29;;;;;;;;;8.80;6.80;;;;;18.01;75.14;99767.31;4977287;28;8828;-59
2023/08/05 07:14:56;;;;;;;;;8.60;7.00;;;;;18.07;74.89;99766.63;4977421;28;8840;-60
2023/08/05 07:17:26;;;;;;;;;7.00;7.00;;;;;18.16;75.15;99770.97;4977004;28;8812;-60
2023/08/05 07:19:53;;;;;;;;;7.20;6.20;;;;;18.20;75.21;99761.50;4976731;28;8821;-59
2023/08/05 07:22:22;;;;;;;;;5.20;5.20;;;;;18.19;74.83;99759.84;4977445;28;8880;-59
2023/08/05 07:24:49;;;;;;;;;6.40;5.80;;;;;18.24;75.01;99763.72;4977391;28;8869;-60
2023/08/05 07:27:17;;;;;;;;;9.20;7.40;;;;;18.32;74.50;99750.22;4977680;28;8867;-60
2023/08/05 07:29:45;;;;;;;;;4.80;4.00;;;;;18.38;74.36;99759.47;4976830;28;8849;-60
2023/08/05 07:32:12;;;;;;;;;8.20;7.40;;;;;18.43;74.50;99751.69;4976477;28;8955;-61
2023/08/05 07:34:43;;;;;;;;;3.20;3.20;;;;;18.49;73.94;99741.03;4977501;28;8856;-60
2023/08/05 07:37:14;;;;;;;;;4.80;4.80;;;;;18.58;74.38;99739.13;4976906;28;8832;-59
2023/08/05 07:39:46;;;;;;;;;6.00;4.00;;;;;18.67;73.86;99735.34;4976811;28;8839;-60
2023/08/05 07:42:15;;;;;;;;;6.60;6.40;;;;;18.75;73.75;99733.44;4977216;28;8849;-59
2023/08/05 07:44:44;;;;;;;;;6.40;6.00;;;;;18.79;73.58;99742.00;4977000;28;8856;-59
2023/08/05 07:47:12;;;;;;;;;6.20;6.00;;;;;18.80;73.45;99736.44;4976557;28;8816;-60
2023/08/05 07:49:40;;;;;;;;;7.00;7.00;;;;;18.77;73.75;99728.72;4976578;28;8825;-60
2023/08/05 07:52:08;;;;;;;;;4.80;4.80;;;;;18.69;73.82;99723.38;4975839;28;8824;-59
2023/08/05 07:54:35;;;;;;;;;4.40;4.40;;;;;18.73;73.66;99724.69;4976449;28;8851;-60
2023/08/05 07:57:04;;;;;;;;;7.40;6.80;;;;;18.75;74.04;99711.84;4976251;28;9510;-61
2023/08/05 07:59:32;;;;;;;;;9.20;9.00;;;;;18.76;73.64;99713.53;4976413;28;8861;-58
2023/08/05 08:02:00;;;;;;;;;5.20;4.40;;;;;18.77;73.63;99712.53;4976713;28;8837;-60
2023/08/05 08:04:29;;;;;;;;;7.00;6.00;;;;;18.89;73.26;99708.38;4975879;28;8845;-61
2023/08/05 08:06:56;;;;;;;;;9.00;6.80;;;;;18.97;73.10;99700.22;4976568;28;8828;-59
2023/08/05 08:09:23;;;;;;;;;6.60;6.40;;;;;19.03;72.90;99696.78;4976205;28;8836;-61
2023/08/05 08:11:51;;;;;;;;;9.20;7.40;;;;;19.15;72.75;99699.91;4975547;28;8833;-59
2023/08/05 08:14:19;;;;;;;;;9.20;7.80;;;;;19.20;72.93;99695.66;4976581;28;9573;-60
2023/08/05 08:16:47;;;;;;;;;9.80;8.20;;;;;19.27;72.56;99696.59;4975507;28;8967;-59
2023/08/05 08:19:18;;;;;;;;;9.80;9.20;;;;;19.31;72.34;99700.63;4976053;28;8833;-60
2023/08/05 08:21:49;;;;;;;;;9.60;8.20;;;;;19.27;72.18;99696.59;4976186;28;8837;-60
2023/08/05 08:24:17;;;;;;;;;7.00;6.80;;;;;19.26;72.45;99694.09;4975260;28;8825;-60
2023/08/05 08:26:45;;;;;;;;;9.40;7.40;;;;;19.27;72.38;99684.97;4976604;28;8840;-61
2023/08/05 08:29:13;;;;;;;;;8.80;8.00;;;;;19.31;72.29;99673.63;4975590;28;8816;-60
2023/08/05 08:31:40;;;;;;;;;6.00;4.00;;;;;19.38;72.55;99676.41;4974893;28;8829;-62
2023/08/05 08:34:08;;;;;;;;;7.60;6.60;;;;;19.44;72.33;99671.13;4956521;29;8835;-59
2023/08/05 08:36:36;;;;;;;;;6.20;6.00;;;;;19.55;72.15;99678.75;4956896;29;8855;-62
2023/08/05 08:39:04;;;;;;;;;3.60;3.00;;;;;19.66;71.87;99662.06;4956760;29;8826;-60
2023/08/05 08:41:32;;;;;;;;;6.60;6.00;;;;;19.72;71.65;99661.34;4956025;29;8982;-61
2023/08/05 08:44:02;;;;;;;;;6.00;6.00;;;;;19.85;71.41;99660.69;4955746;29;8997;-60
2023/08/05 08:46:30;;;;;;;;;4.80;4.80;;;;;19.99;70.83;99652.56;4972276;28;8845;-59
2023/08/05 08:48:57;;;;;;;;;5.80;5.20;;;;;20.18;70.77;99656.56;4974565;28;8832;-60
2023/08/05 08:51:25;;;;;;;;;7.00;6.00;;;;;20.29;70.18;99648.81;4974124;28;8883;-60
2023/08/05 08:53:53;;;;;;;;;9.60;8.00;;;;;20.45;69.85;99651.28;4974278;28;9006;-60
2023/08/05 08:56:21;;;;;;;;;5.20;4.60;;;;;20.65;69.49;99648.75;4974434;28;8867;-60
2023/08/05 08:58:49;;;;;;;;;7.00;5.00;;;;;20.72;68.95;99653.22;4974881;28;8983;-60
2023/08/05 09:01:17;;;;;;;;;4.80;4.80;;;;;20.74;69.21;99648.44;4975256;28;8895;-60
2023/08/05 09:03:45;;;;;;;;;5.00;5.00;;;;;20.75;69.34;99636.59;4975068;28;8839;-59
2023/08/05 09:06:12;;;;;;;;;8.00;5.80;;;;;20.84;68.76;99638.97;4974662;28;8939;-59
2023/08/05 09:08:40;;;;;;;;;5.00;4.80;;;;;20.95;68.89;99640.34;4975354;28;8829;-59
2023/08/05 09:11:08;;;;;;;;;4.40;4.40;;;;;21.01;68.47;99631.41;4974734;28;8859;-59
2023/08/05 09:13:36;;;;;;;;;7.00;5.00;;;;;20.99;68.59;99631.63;4975187;28;8836;-59
2023/08/05 09:16:03;;;;;;;;;1.00;1.00;;;;;21.04;68.06;99636.47;4975460;28;8959;-59
2023/08/05 09:18:31;;;;;;;;;3.20;2.80;;;;;21.11;68.42;99626.53;4975011;28;8839;-60
2023/08/05 09:20:59;;;;;;;;;6.60;5.00;;;;;21.22;67.68;99623.25;4974523;28;8828;-60
2023/08/05 09:23:27;;;;;;;;;4.20;4.20;;;;;21.29;67.16;99614.16;4975750;28;8963;-60
2023/08/05 09:25:55;;;;;;;;;1.00;1.00;;;;;21.26;67.53;99611.81;4975660;28;8832;-60
2023/08/05 09:28:23;;;;;;;;;2.00;2.00;;;;;21.35;67.10;99607.91;4976164;28;8860;-60
2023/08/05 09:30:50;;;;;;;;;7.80;5.00;;;;;21.42;66.69;99606.09;4975814;28;8939;-60
2023/08/05 09:33:18;;;;;;;;;4.40;4.40;;;;;21.53;66.85;99610.13;4975836;28;8832;-60
2023/08/05 09:35:47;;;;;;;;;6.60;5.00;;;;;21.59;66.73;99598.47;4978007;28;8840;-59
2023/08/05 09:38:15;;;;;;;;;6.20;5.00;;;;;21.67;66.61;99590.22;4978931;28;8829;-60
2023/08/05 09:40:46;;;;;;;;;4.00;2.00;;;;;21.81;65.12;99589.25;4978131;28;8868;-60
2023/08/05 09:43:14;;;;;;;;;5.00;5.00;;;;;21.80;65.08;99582.16;4978048;28;8967;-59
2023/08/05 09:45:44;;;;;;;;;5.00;4.80;;;;;21.74;65.28;99582.94;4977925;28;8916;-59
2023/08/05 09:48:13;;;;;;;;;8.80;6.60;;;;;21.97;64.20;99584.31;4978261;28;8847;-60
2023/08/05 09:50:42;;;;;;;;;5.40;5.00;;;;;22.27;63.56;99582.94;4978020;28;8837;-60
2023/08/05 09:53:11;;;;;;;;;5.60;5.60;;;;;22.51;63.28;99576.13;4978076;28;8828;-60
2023/08/05 09:55:39;;;;;;;;;5.00;4.40;;;;;22.85;62.38;99573.22;4978185;28;8836;-60
2023/08/05 09:58:07;;;;;;;;;7.00;6.40;;;;;23.22;62.03;99575.31;4977522;28;8935;-59
2023/08/05 10:00:36;;;;;;;;;8.40;8.40;;;;;23.76;60.82;99570.34;4977181;28;8971;-60
2023/08/05 10:03:06;;;;;;;;;6.40;6.20;;;;;24.24;59.69;99563.44;4977363;28;8808;-60
2023/08/05 10:05:38;;;;;;;;;10.80;8.60;;;;;24.31;59.06;99567.81;4977769;28;9793;-60
2023/08/05 10:08:07;;;;;;;;;10.20;8.20;;;;;23.85;60.69;99563.63;4977503;28;8832;-60
2023/08/05 10:10:35;;;;;;;;;5.00;5.00;;;;;23.43;60.80;99556.03;4976640;28;8825;-60
2023/08/05 10:13:04;;;;;;;;;5.00;5.00;;;;;23.13;62.01;99560.25;4975363;28;8840;-59
2023/08/05 10:15:32;;;;;;;;;6.00;6.00;;;;;22.80;62.67;99564.84;4976048;28;8860;-59
2023/08/05 10:18:00;;;;;;;;;5.80;5.60;;;;;22.47;63.40;99556.69;4976147;28;8845;-59
2023/08/05 10:20:28;;;;;;;;;10.20;10.20;;;;;22.27;63.66;99557.66;4976300;28;8848;-59
2023/08/05 10:22:55;;;;;;;;;10.80;8.40;;;;;22.49;63.33;99540.19;4976549;28;8841;-59
2023/08/05 10:25:24;;;;;;;;;7.80;7.20;;;;;22.72;63.06;99554.22;4976400;28;8845;-59
2023/08/05 10:27:52;;;;;;;;;6.20;6.20;;;;;23.02;61.67;99556.28;4976849;28;8829;-62
2023/08/05 10:30:19;;;;;;;;;7.20;7.20;;;;;23.73;60.52;99532.69;4976265;28;8865;-59
2023/08/05 10:32:47;;;;;;;;;8.80;8.40;;;;;23.74;60.28;99537.09;4976216;28;8851;-60
2023/08/05 10:35:15;;;;;;;;;9.20;8.20;;;;;23.38;61.42;99534.09;4975701;28;8868;-59
2023/08/05 10:37:44;;;;;;;;;7.20;7.20;;;;;23.20;61.15;99533.91;4974922;28;8919;-60
2023/08/05 10:40:12;;;;;;;;;9.40;8.40;;;;;22.83;61.83;99543.53;4975553;28;8836;-59
2023/08/05 10:42:40;;;;;;;;;9.60;9.60;;;;;23.33;61.24;99539.31;4976133;28;8851;-60
2023/08/05 10:45:08;;;;;;;;;7.60;7.60;;;;;24.20;59.04;99526.84;4977036;28;8852;-59
2023/08/05 10:47:36;;;;;;;;;9.60;8.00;;;;;25.09;57.09;99518.16;4977115;28;8856;-60
2023/08/05 10:50:04;;;;;;;;;8.60;8.00;;;;;25.69;55.94;99520.88;4977184;28;8825;-60
2023/08/05 10:52:31;;;;;;;;;9.20;9.20;;;;;25.59;56.10;99520.53;4977737;28;8825;-59
2023/08/05 10:55:00;;;;;;;;;5.40;5.20;;;;;25.56;56.40;99524.81;4977641;28;8848;-60
2023/08/05 10:57:28;;;;;;;;;5.00;5.00;;;;;26.10;55.35;99520.16;4977890;28;8848;-60
2023/08/05 10:59:55;;;;;;;;;6.00;5.20;;;;;26.59;54.47;99525.28;4977275;28;8860;-59
2023/08/05 11:02:23;;;;;;;;;9.00;7.00;;;;;27.07;53.51;99515.81;4976847;28;8984;-60
2023/08/05 11:04:51;;;;;;;;;7.00;6.20;;;;;27.42;52.46;99507.63;4977145;28;8930;-60
2023/08/05 11:07:19;;;;;;;;;6.40;6.40;;;;;27.26;52.27;99513.81;4977142;28;8828;-61
2023/08/05 11:09:47;;;;;;;;;5.00;3.40;;;;;26.42;54.09;99516.06;4976345;28;8829;-60
2023/08/05 11:12:15;;;;;;;;;6.00;5.80;;;;;25.73;55.67;99513.06;4976451;28;8963;-59
2023/08/05 11:14:43;;;;;;;;;5.00;5.00;;;;;25.43;56.31;99506.72;4977493;28;8828;-59
2023/08/05 11:17:13;;;;;;;;;8.00;7.00;;;;;25.19;56.33;99504.00;4976275;28;8824;-60
2023/08/05 11:19:41;;;;;;;;;9.60;9.40;;;;;24.92;56.44;99502.59;4975854;28;8844;-60
2023/08/05 11:22:09;;;;;;;;;6.40;6.00;;;;;24.72;57.07;99502.78;4976265;28;8832;-61
2023/08/05 11:24:37;;;;;;;;;5.00;5.00;;;;;24.52;56.72;99499.38;4975898;28;8970;-58
2023/08/05 11:27:04;;;;;;;;;9.00;7.80;;;;;24.14;57.90;99495.03;4975345;28;8837;-60
2023/08/05 11:29:32;;;;;;;;;7.40;7.00;;;;;23.92;58.28;99486.41;4974809;28;8959;-62
2023/08/05 11:32:01;;;;;;;;;6.80;6.00;;;;;23.85;58.03;99495.59;4975357;28;8862;-60
2023/08/05 11:34:29;;;;;;;;;7.60;7.60;;;;;23.78;58.42;99479.34;4975760;28;8834;-59
2023/08/05 11:37:00;;;;;;;;;7.00;7.00;;;;;23.81;57.34;99486.22;4976020;28;8844;-59
2023/08/05 11:39:28;;;;;;;;;8.60;7.00;;;;;23.76;57.70;99480.59;4976210;28;9565;-59
2023/08/05 11:41:56;;;;;;;;;9.40;8.00;;;;;23.68;57.54;99470.78;4974832;28;8856;-61
2023/08/05 11:44:24;;;;;;;;;6.00;6.00;;;;;23.63;57.96;99465.19;4976101;28;8955;-60